Darstellungsparameter: Aktuell verwendete Einstellungen:
Skalierung der Graphiken ... ?
xyx+y,   Skalierungsfaktor:      Skalierung: Modus: x, Faktor: 1
Darstellungszeitraum ... ?
Vom - - bis: - -   Zeitraum: 13.02.2010 - 19.02.2010
Min/Max/Avg-Anzeige ... ?
Zeige MMA aktuell
Zeige MMA Monat
Zeige MMA alles
Zeige --A aktuell
Zeige --A Monat
Zeige --A alles
Keine MMA-Anzeige
MMA:
Average (ber die Originaldaten)
MMA-Basis: 13.02.2010 - 19.02.2010
Quicknavigation für Darstellung... ?
Tage:      1T, 2T, 3T, 5T -1T -2T -3T -5T +1T +2T +3T +5T
Wochen: 1W, 2W, 3W -1W -2W -3W +1W +2W +3W
Monate: 1M, 3M, 6M -1M -3M -6M +1M +3M +6M
Jahre:    1J, 3J, 5J, 10J -1J -3J -5J -10J +1J +3J +5J +10J
Nutze für die Darstellung ... ?
Originaldaten oder Mittelwerte auf ...
Stundenbasis Tagesbasis Wochenbasis
Monatsbasis Jahresbasis      Datenbasis: Original-Daten
Darstellen als:
Statistik (Auto) Statistik J:M      Darstellung:
Zur Graphik,    zurück zur Übersicht aller Sensoren.
 
Tabellarische Datenbersicht: ?
 
Sensor: Nr:Datum:Temp:Abs-Feuchte:Windchill:Wind:
Aussen-T/F 1 13-02-2010 00:01:25 -3.2 C 2.71 g/m*3 -3.2 C 0 km/h
2 13-02-2010 00:26:25 -3.4 C 2.75 g/m*3 -3.4 C 0 km/h
3 13-02-2010 00:51:25 -3.7 C 2.73 g/m*3 -3.7 C 0 km/h
4 13-02-2010 01:16:25 -3.9 C 2.76 g/m*3 -3.9 C 0 km/h
5 13-02-2010 01:41:25 -4 C 2.78 g/m*3 -4 C 0 km/h
6 13-02-2010 02:06:25 -3.9 C 2.8 g/m*3 -3.9 C 0 km/h
7 13-02-2010 02:31:25 -4 C 2.74 g/m*3 -4 C 0 km/h
8 13-02-2010 02:56:25 -4.1 C 2.69 g/m*3 -4.1 C 0 km/h
9 13-02-2010 03:21:25 -4.2 C 2.7 g/m*3 -4.2 C 0 km/h
10 13-02-2010 03:46:25 -4.2 C 2.74 g/m*3 -4.2 C 0 km/h
11 13-02-2010 04:11:25 -4.2 C 2.74 g/m*3 -4.2 C 0 km/h
12 13-02-2010 04:36:25 -4.1 C 2.8 g/m*3 -4.1 C 0 km/h
13 13-02-2010 05:01:25 -4.1 C 2.8 g/m*3 -4.1 C 0 km/h
14 13-02-2010 05:26:25 -4 C 2.82 g/m*3 -4 C 0 km/h
15 13-02-2010 05:51:25 -3.8 C 2.86 g/m*3 -3.8 C 0 km/h
16 13-02-2010 06:16:26 -3.9 C 2.84 g/m*3 -3.9 C 0 km/h
17 13-02-2010 06:41:26 -3.8 C 2.86 g/m*3 -3.8 C 0 km/h
18 13-02-2010 07:06:26 -3.7 C 2.84 g/m*3 -3.7 C 0 km/h
19 13-02-2010 07:31:26 -3.8 C 2.78 g/m*3 -3.8 C 0 km/h
20 13-02-2010 07:56:26 -3.8 C 2.82 g/m*3 -3.8 C 0 km/h
21 13-02-2010 08:21:26 -3.6 C 2.86 g/m*3 -3.6 C 0 km/h
22 13-02-2010 08:46:26 -3.2 C 2.9 g/m*3 -3.2 C 0 km/h
23 13-02-2010 09:11:26 -2.9 C 2.89 g/m*3 -2.9 C 0 km/h
24 13-02-2010 09:36:26 -2.6 C 2.91 g/m*3 -2.6 C 0 km/h
25 13-02-2010 10:01:26 -2.7 C 2.73 g/m*3 -2.7 C 0 km/h
Sensor: Nr:Datum:Temp:Abs-Feuchte:Windchill:Wind:
Aussen-T/F 26 13-02-2010 10:26:26 -2.4 C 2.7 g/m*3 -2.4 C 0 km/h
27 13-02-2010 10:51:26 -2.3 C 2.64 g/m*3 -2.3 C 0 km/h
28 13-02-2010 11:16:26 -1.9 C 2.76 g/m*3 -1.9 C 0 km/h
29 13-02-2010 11:41:26 -1.5 C 2.66 g/m*3 -1.5 C 0 km/h
30 13-02-2010 12:06:26 -1.3 C 2.7 g/m*3 -1.3 C 0 km/h
31 13-02-2010 12:31:26 -0.5 C 2.86 g/m*3 -0.5 C 0 km/h
32 13-02-2010 12:56:26 -1.2 C 2.67 g/m*3 -1.2 C 0 km/h
33 13-02-2010 13:21:26 -1.4 C 2.73 g/m*3 -1.4 C 0 km/h
34 13-02-2010 13:46:26 -1 C 2.76 g/m*3 -1 C 0 km/h
35 13-02-2010 14:11:26 -1.1 C 2.51 g/m*3 -1.1 C 0 km/h
36 13-02-2010 14:36:26 0 C 2.76 g/m*3 0 C 0 km/h
37 13-02-2010 15:01:27 -0.3 C 2.56 g/m*3 -0.3 C 0 km/h
38 13-02-2010 15:26:27 -0.5 C 2.57 g/m*3 -0.5 C 0 km/h
39 13-02-2010 15:51:27 -0.7 C 2.54 g/m*3 -0.7 C 0 km/h
40 13-02-2010 16:16:27 -0.9 C 2.55 g/m*3 -0.9 C 0 km/h
41 13-02-2010 16:41:27 -1 C 2.58 g/m*3 -1 C 0 km/h
42 13-02-2010 17:06:27 -1.4 C 2.68 g/m*3 -1.4 C 0 km/h
43 13-02-2010 17:31:27 -1.9 C 2.8 g/m*3 -1.9 C 0 km/h
44 13-02-2010 17:56:27 -2 C 2.91 g/m*3 -2 C 0 km/h
45 13-02-2010 18:21:27 -2 C 2.95 g/m*3 -2 C 0 km/h
46 13-02-2010 18:46:27 -2.1 C 2.97 g/m*3 -2.1 C 0 km/h
47 13-02-2010 19:11:27 -2.2 C 2.99 g/m*3 -2.2 C 0 km/h
48 13-02-2010 19:36:27 -2.1 C 3.01 g/m*3 -2.1 C 0 km/h
49 13-02-2010 20:01:27 -2.2 C 2.99 g/m*3 -2.2 C 0 km/h
50 13-02-2010 20:26:27 -2.3 C 3.01 g/m*3 -2.3 C 0 km/h
Sensor: Nr:Datum:Temp:Abs-Feuchte:Windchill:Wind:
Aussen-T/F 51 13-02-2010 20:51:27 -2.4 C 2.99 g/m*3 -2.4 C 0 km/h
52 13-02-2010 21:16:27 -2.4 C 2.99 g/m*3 -2.4 C 0 km/h
53 13-02-2010 21:41:27 -2.4 C 2.99 g/m*3 -2.4 C 0 km/h
54 13-02-2010 22:06:27 -2.5 C 2.97 g/m*3 -2.5 C 0 km/h
55 13-02-2010 22:31:27 -2.6 C 2.99 g/m*3 -2.6 C 0 km/h
56 13-02-2010 22:56:27 -2.5 C 3.05 g/m*3 -2.5 C 0 km/h
57 13-02-2010 23:21:28 -2.7 C 3.05 g/m*3 -2.7 C 0 km/h
58 13-02-2010 23:46:28 -2.8 C 3.03 g/m*3 -2.8 C 0 km/h
59 14-02-2010 00:11:28 -2.9 C 3.01 g/m*3 -2.9 C 0 km/h
60 14-02-2010 00:36:28 -3.1 C 3 g/m*3 -3.1 C 0 km/h
61 14-02-2010 01:01:28 -3.2 C 2.98 g/m*3 -3.2 C 0 km/h
62 14-02-2010 01:26:28 -3.3 C 2.96 g/m*3 -3.3 C 0 km/h
63 14-02-2010 01:51:28 -3.4 C 2.94 g/m*3 -3.4 C 0 km/h
64 14-02-2010 02:16:28 -3.4 C 2.98 g/m*3 -3.4 C 0 km/h
65 14-02-2010 02:41:28 -3.4 C 2.98 g/m*3 -3.4 C 0 km/h
66 14-02-2010 03:06:28 -3.4 C 3.02 g/m*3 -3.4 C 0 km/h
67 14-02-2010 03:31:28 -3.4 C 3.02 g/m*3 -3.4 C 0 km/h
68 14-02-2010 03:56:28 -3.6 C 2.97 g/m*3 -3.6 C 0 km/h
69 14-02-2010 04:21:28 -3.5 C 2.99 g/m*3 -3.5 C 0 km/h
70 14-02-2010 04:46:28 -3.6 C 2.97 g/m*3 -3.6 C 0 km/h
71 14-02-2010 05:11:28 -3.7 C 2.95 g/m*3 -3.7 C 0 km/h
72 14-02-2010 05:36:28 -3.6 C 3.01 g/m*3 -3.6 C 0 km/h
73 14-02-2010 06:01:28 -3.7 C 2.99 g/m*3 -3.7 C 0 km/h
74 14-02-2010 06:26:28 -3.7 C 2.99 g/m*3 -3.7 C 0 km/h
75 14-02-2010 06:51:28 -3.7 C 2.99 g/m*3 -3.7 C 0 km/h
Sensor: Nr:Datum:Temp:Abs-Feuchte:Windchill:Wind:
Aussen-T/F 76 14-02-2010 07:16:28 -3.4 C 3.05 g/m*3 -3.4 C 0 km/h
77 14-02-2010 07:41:28 -3.6 C 3.01 g/m*3 -3.6 C 0 km/h
78 14-02-2010 08:06:29 -3.5 C 3.03 g/m*3 -3.5 C 0 km/h
79 14-02-2010 08:31:29 -3.5 C 3.03 g/m*3 -3.5 C 0 km/h
80 14-02-2010 08:56:29 -3.3 C 3.08 g/m*3 -3.3 C 0 km/h
81 14-02-2010 09:21:29 -3.2 C 3.1 g/m*3 -3.2 C 0 km/h
82 14-02-2010 09:46:29 -3.1 C 3.12 g/m*3 -3.1 C 0 km/h
83 14-02-2010 10:11:29 -2.8 C 3.19 g/m*3 -2.8 C 0 km/h
84 14-02-2010 10:36:29 -2.4 C 3.24 g/m*3 -2.4 C 0 km/h
85 14-02-2010 11:01:29 -2.1 C 3.22 g/m*3 -2.1 C 0 km/h
86 14-02-2010 11:26:29 -1.9 C 3.23 g/m*3 -1.9 C 0 km/h
87 14-02-2010 11:51:29 -1.5 C 3.23 g/m*3 -1.5 C 0 km/h
88 14-02-2010 12:16:29 -1.1 C 3.19 g/m*3 -1.1 C 0 km/h
89 14-02-2010 12:41:29 -0.6 C 3.07 g/m*3 -0.6 C 0 km/h
90 14-02-2010 13:06:29 0.2 C 3.14 g/m*3 0.2 C 0 km/h
91 14-02-2010 13:31:29 0.6 C 3.03 g/m*3 0.6 C 0 km/h
92 14-02-2010 13:56:29 1 C 3.01 g/m*3 1 C 0 km/h
93 14-02-2010 14:21:29 1.4 C 3.09 g/m*3 1.4 C 0 km/h
94 14-02-2010 14:46:29 1.4 C 3.04 g/m*3 1.4 C 0 km/h
95 14-02-2010 15:11:29 0.8 C 2.92 g/m*3 0.8 C 0 km/h
96 14-02-2010 15:36:29 0.7 C 3 g/m*3 0.7 C 0 km/h
97 14-02-2010 16:01:29 0.1 C 2.98 g/m*3 0.1 C 0 km/h
98 14-02-2010 16:26:30 -0.3 C 2.99 g/m*3 -0.3 C 0 km/h
99 14-02-2010 16:51:30 -0.5 C 3.09 g/m*3 -0.5 C 0 km/h
100 14-02-2010 17:16:30 -0.7 C 3.14 g/m*3 -0.7 C 0 km/h
Sensor: Nr:Datum:Temp:Abs-Feuchte:Windchill:Wind:
Aussen-T/F 101 14-02-2010 17:41:30 -0.9 C 3.19 g/m*3 -0.9 C 0 km/h
102 14-02-2010 18:06:30 -1.1 C 3.23 g/m*3 -1.1 C 0 km/h
103 14-02-2010 18:31:30 -1.3 C 3.23 g/m*3 -1.3 C 0 km/h
104 14-02-2010 18:56:30 -1.5 C 3.27 g/m*3 -1.5 C 0 km/h
105 14-02-2010 19:21:30 -1.7 C 3.27 g/m*3 -1.7 C 0 km/h
106 14-02-2010 19:46:30 -1.8 C 3.29 g/m*3 -1.8 C 0 km/h
107 14-02-2010 20:11:30 -1.7 C 3.36 g/m*3 -1.7 C 0 km/h
108 14-02-2010 20:36:30 -1.9 C 3.31 g/m*3 -1.9 C 0 km/h
109 14-02-2010 21:01:30 -2.2 C 3.24 g/m*3 -2.2 C 0 km/h
110 14-02-2010 21:26:30 -2.4 C 3.16 g/m*3 -2.4 C 0 km/h
111 14-02-2010 21:51:30 -2.6 C 3.11 g/m*3 -2.6 C 0 km/h
112 14-02-2010 22:16:30 -2.9 C 3.01 g/m*3 -2.9 C 0 km/h
113 14-02-2010 22:41:30 -3 C 3.02 g/m*3 -3 C 0 km/h
114 14-02-2010 23:06:30 -3 C 2.99 g/m*3 -3 C 0 km/h
115 14-02-2010 23:31:30 -3 C 2.99 g/m*3 -3 C 0 km/h
116 14-02-2010 23:56:30 -3 C 2.99 g/m*3 -3 C 0 km/h
117 15-02-2010 00:21:30 -3 C 2.99 g/m*3 -3 C 0 km/h
118 15-02-2010 00:46:30 -3 C 2.99 g/m*3 -3 C 0 km/h
119 15-02-2010 01:11:31 -3 C 2.99 g/m*3 -3 C 0 km/h
120 15-02-2010 01:36:31 -2.9 C 2.97 g/m*3 -2.9 C 0 km/h
121 15-02-2010 02:01:31 -2.8 C 2.99 g/m*3 -2.8 C 0 km/h
122 15-02-2010 02:26:31 -2.7 C 3.01 g/m*3 -2.7 C 0 km/h
123 15-02-2010 02:51:31 -2.6 C 3.03 g/m*3 -2.6 C 0 km/h
124 15-02-2010 03:16:31 -2.6 C 2.99 g/m*3 -2.6 C 0 km/h
125 15-02-2010 03:41:31 -2.6 C 2.99 g/m*3 -2.6 C 0 km/h
Sensor: Nr:Datum:Temp:Abs-Feuchte:Windchill:Wind:
Aussen-T/F 126 15-02-2010 04:06:31 -2.6 C 2.99 g/m*3 -2.6 C 0 km/h
127 15-02-2010 04:31:31 -2.6 C 3.03 g/m*3 -2.6 C 0 km/h
128 15-02-2010 04:56:31 -2.6 C 3.03 g/m*3 -2.6 C 0 km/h
129 15-02-2010 05:21:31 -2.6 C 3.07 g/m*3 -2.6 C 0 km/h
130 15-02-2010 05:46:31 -2.6 C 3.11 g/m*3 -2.6 C 0 km/h
131 15-02-2010 06:11:31 -2.7 C 3.05 g/m*3 -2.7 C 0 km/h
132 15-02-2010 06:36:31 -2.8 C 3.03 g/m*3 -2.8 C 0 km/h
133 15-02-2010 07:01:31 -2.9 C 3.01 g/m*3 -2.9 C 0 km/h
134 15-02-2010 07:26:31 -3.2 C 2.9 g/m*3 -3.2 C 0 km/h
135 15-02-2010 07:51:31 -3.1 C 2.96 g/m*3 -3.1 C 0 km/h
136 15-02-2010 08:16:31 -3.1 C 2.96 g/m*3 -3.1 C 0 km/h
137 15-02-2010 08:41:31 -3 C 2.91 g/m*3 -3 C 0 km/h
138 15-02-2010 09:06:31 -2.7 C 2.93 g/m*3 -2.7 C 0 km/h
139 15-02-2010 09:31:31 -2.3 C 2.97 g/m*3 -2.3 C 0 km/h
140 15-02-2010 09:56:32 -1.8 C 3.04 g/m*3 -1.8 C 0 km/h
141 15-02-2010 10:21:32 -1.4 C 3.03 g/m*3 -1.4 C 0 km/h
142 15-02-2010 10:46:32 -0.2 C 3.11 g/m*3 -0.2 C 0 km/h
143 15-02-2010 11:11:32 -0.3 C 3.04 g/m*3 -0.3 C 0 km/h
144 15-02-2010 11:36:32 -0.2 C 3.11 g/m*3 -0.2 C 0 km/h
145 15-02-2010 12:01:32 0.3 C 3.07 g/m*3 0.3 C 0 km/h
146 15-02-2010 12:26:32 0.9 C 3.2 g/m*3 0.9 C 0 km/h
147 15-02-2010 12:51:32 1.2 C 3.21 g/m*3 1.2 C 0 km/h
148 15-02-2010 13:16:32 1.6 C 3.24 g/m*3 1.6 C 0 km/h
149 15-02-2010 13:41:32 1.8 C 3.29 g/m*3 1.8 C 0 km/h
150 15-02-2010 14:06:32 2.2 C 3.21 g/m*3 2.2 C 0 km/h
Sensor: Nr:Datum:Temp:Abs-Feuchte:Windchill:Wind:
Aussen-T/F 151 15-02-2010 14:31:32 1.4 C 3.2 g/m*3 1.4 C 0 km/h
152 15-02-2010 14:56:32 1.6 C 3.41 g/m*3 1.6 C 0 km/h
153 15-02-2010 15:21:32 1.8 C 3.45 g/m*3 1.8 C 0 km/h
154 15-02-2010 15:46:32 1.8 C 3.4 g/m*3 1.8 C 0 km/h
155 15-02-2010 16:11:32 1.5 C 3.38 g/m*3 1.5 C 0 km/h
156 15-02-2010 16:36:32 1.3 C 3.44 g/m*3 1.3 C 0 km/h
157 15-02-2010 17:01:32 0.7 C 3.46 g/m*3 0.7 C 0 km/h
158 15-02-2010 17:26:32 0.3 C 3.46 g/m*3 0.3 C 0 km/h
159 15-02-2010 17:51:32 -0.2 C 3.39 g/m*3 -0.2 C 0 km/h
160 15-02-2010 18:16:33 -0.4 C 3.44 g/m*3 -0.4 C 0 km/h
161 15-02-2010 18:41:33 -0.6 C 3.44 g/m*3 -0.6 C 0 km/h
162 15-02-2010 19:06:33 -0.9 C 3.46 g/m*3 -0.9 C 0 km/h
163 15-02-2010 19:31:33 -1 C 3.44 g/m*3 -1 C 0 km/h
164 15-02-2010 19:56:33 -1 C 3.48 g/m*3 -1 C 0 km/h
165 15-02-2010 20:21:33 -1.2 C 3.43 g/m*3 -1.2 C 0 km/h
166 15-02-2010 20:46:33 -1.3 C 3.41 g/m*3 -1.3 C 0 km/h
167 15-02-2010 21:11:33 -1.2 C 3.43 g/m*3 -1.2 C 0 km/h
168 15-02-2010 21:36:33 -1.2 C 3.48 g/m*3 -1.2 C 0 km/h
169 15-02-2010 22:01:33 -1 C 3.57 g/m*3 -1 C 0 km/h
170 15-02-2010 22:26:33 -1 C 3.53 g/m*3 -1 C 0 km/h
171 15-02-2010 22:51:33 -1.2 C 3.48 g/m*3 -1.2 C 0 km/h
172 15-02-2010 23:16:33 -1.2 C 3.48 g/m*3 -1.2 C 0 km/h
173 15-02-2010 23:41:33 -1.3 C 3.45 g/m*3 -1.3 C 0 km/h
174 16-02-2010 00:06:33 -1.4 C 3.43 g/m*3 -1.4 C 0 km/h
175 16-02-2010 00:31:33 -2.1 C 3.22 g/m*3 -2.1 C 0 km/h
Sensor: Nr:Datum:Temp:Abs-Feuchte:Windchill:Wind:
Aussen-T/F 176 16-02-2010 00:56:33 -2.7 C 3.13 g/m*3 -2.7 C 0 km/h
177 16-02-2010 01:21:33 -2.9 C 3.13 g/m*3 -2.9 C 0 km/h
178 16-02-2010 01:46:33 -2.9 C 3.16 g/m*3 -2.9 C 0 km/h
179 16-02-2010 02:11:33 -2.9 C 3.16 g/m*3 -2.9 C 0 km/h
180 16-02-2010 02:36:33 -3.2 C 3.1 g/m*3 -3.2 C 0 km/h
181 16-02-2010 03:01:34 -3.3 C 3.08 g/m*3 -3.3 C 0 km/h
182 16-02-2010 03:26:34 -3.4 C 3.09 g/m*3 -3.4 C 0 km/h
183 16-02-2010 03:51:34 -3.1 C 3.16 g/m*3 -3.1 C 0 km/h
184 16-02-2010 04:16:34 -2.9 C 3.2 g/m*3 -2.9 C 0 km/h
185 16-02-2010 04:41:34 -2.7 C 3.29 g/m*3 -2.7 C 0 km/h
186 16-02-2010 05:06:34 -2.7 C 3.25 g/m*3 -2.7 C 0 km/h
187 16-02-2010 05:31:34 -2.7 C 3.25 g/m*3 -2.7 C 0 km/h
188 16-02-2010 05:56:34 -2.6 C 3.27 g/m*3 -2.6 C 0 km/h
189 16-02-2010 06:21:34 -2.3 C 3.34 g/m*3 -2.3 C 0 km/h
190 16-02-2010 06:46:34 -2.3 C 3.3 g/m*3 -2.3 C 0 km/h
191 16-02-2010 07:11:34 -2.5 C 3.26 g/m*3 -2.5 C 0 km/h
192 16-02-2010 07:36:34 -2.8 C 3.19 g/m*3 -2.8 C 0 km/h
193 16-02-2010 08:01:34 -2.8 C 3.19 g/m*3 -2.8 C 0 km/h
194 16-02-2010 08:26:34 -2.5 C 3.3 g/m*3 -2.5 C 0 km/h
195 16-02-2010 08:51:34 -1.9 C 3.4 g/m*3 -1.9 C 0 km/h
196 16-02-2010 09:16:34 -1.4 C 3.47 g/m*3 -1.4 C 0 km/h
197 16-02-2010 09:41:34 -0.7 C 3.51 g/m*3 -0.7 C 0 km/h
198 16-02-2010 10:06:34 -0.6 C 3.35 g/m*3 -0.6 C 0 km/h
199 16-02-2010 10:31:34 0.1 C 3.42 g/m*3 0.1 C 0 km/h
200 16-02-2010 10:56:34 -0.1 C 3.27 g/m*3 -0.1 C 0 km/h
Sensor: Nr:Datum:Temp:Abs-Feuchte:Windchill:Wind:
Aussen-T/F 201 16-02-2010 11:21:34 0.3 C 3.31 g/m*3 0.3 C 0 km/h
202 16-02-2010 11:46:35 0.4 C 3.19 g/m*3 0.4 C 0 km/h
203 16-02-2010 12:11:35 1.2 C 3.31 g/m*3 1.2 C 0 km/h
204 16-02-2010 12:36:35 2.4 C 2.91 g/m*3 2.4 C 0 km/h
205 16-02-2010 13:01:35 2.8 C 2.76 g/m*3 2.8 C 0 km/h
206 16-02-2010 13:26:35 2.9 C 2.6 g/m*3 2.9 C 0 km/h
207 16-02-2010 13:51:35 2.8 C 2.7 g/m*3 2.8 C 0 km/h
208 16-02-2010 14:16:35 3.5 C 2.64 g/m*3 3.5 C 0 km/h
209 16-02-2010 14:41:35 3.4 C 2.57 g/m*3 3.4 C 0 km/h
210 16-02-2010 15:06:35 3.2 C 2.53 g/m*3 3.2 C 0 km/h
211 16-02-2010 15:31:35 3.9 C 2.4 g/m*3 3.9 C 0 km/h
212 16-02-2010 15:56:35 4.5 C 2.43 g/m*3 4.5 C 0 km/h
213 16-02-2010 16:21:35 4.4 C 2.42 g/m*3 4.4 C 0 km/h
214 16-02-2010 16:46:35 4.1 C 2.43 g/m*3 4.1 C 0 km/h
215 16-02-2010 17:11:35 2.8 C 2.58 g/m*3 2.8 C 0 km/h
216 16-02-2010 17:36:35 1.1 C 2.61 g/m*3 1.1 C 0 km/h
217 16-02-2010 18:01:35 -0.2 C 2.63 g/m*3 -0.2 C 0 km/h
218 16-02-2010 18:26:35 -1.4 C 2.73 g/m*3 -1.4 C 0 km/h
219 16-02-2010 18:51:35 -2 C 2.74 g/m*3 -2 C 0 km/h
220 16-02-2010 19:16:35 -2.5 C 2.73 g/m*3 -2.5 C 0 km/h
221 16-02-2010 19:41:35 -2.7 C 2.77 g/m*3 -2.7 C 0 km/h
222 16-02-2010 20:06:36 -3 C 2.75 g/m*3 -3 C 0 km/h
223 16-02-2010 20:31:36 -3.2 C 2.75 g/m*3 -3.2 C 0 km/h
224 16-02-2010 20:56:36 -3.6 C 2.67 g/m*3 -3.6 C 0 km/h
225 16-02-2010 21:21:36 -3.8 C 2.67 g/m*3 -3.8 C 0 km/h
Sensor: Nr:Datum:Temp:Abs-Feuchte:Windchill:Wind:
Aussen-T/F 226 16-02-2010 21:46:36 -4.1 C 2.62 g/m*3 -4.1 C 0 km/h
227 16-02-2010 22:11:36 -4.2 C 2.63 g/m*3 -4.2 C 0 km/h
228 16-02-2010 22:36:36 -4.5 C 2.58 g/m*3 -4.5 C 0 km/h
229 16-02-2010 23:01:36 -4.7 C 2.54 g/m*3 -4.7 C 0 km/h
230 16-02-2010 23:26:36 -4.9 C 2.5 g/m*3 -4.9 C 0 km/h
231 16-02-2010 23:51:36 -5.1 C 2.47 g/m*3 -5.1 C 0 km/h
232 17-02-2010 00:16:36 -5.4 C 2.41 g/m*3 -5.4 C 0 km/h
233 17-02-2010 00:41:36 -5.7 C 2.36 g/m*3 -5.7 C 0 km/h
234 17-02-2010 01:06:36 -6 C 2.34 g/m*3 -6 C 0 km/h
235 17-02-2010 01:31:36 -6.2 C 2.31 g/m*3 -6.2 C 0 km/h
236 17-02-2010 01:56:36 -6.5 C 2.26 g/m*3 -6.5 C 0 km/h
237 17-02-2010 02:21:36 -6.6 C 2.27 g/m*3 -6.6 C 0 km/h
238 17-02-2010 02:46:36 -6.8 C 2.24 g/m*3 -6.8 C 0 km/h
239 17-02-2010 03:11:36 -6.9 C 2.22 g/m*3 -6.9 C 0 km/h
240 17-02-2010 03:36:36 -6.2 C 2.37 g/m*3 -6.2 C 0 km/h
241 17-02-2010 04:01:36 -5.8 C 2.44 g/m*3 -5.8 C 0 km/h
242 17-02-2010 04:26:36 -5.5 C 2.5 g/m*3 -5.5 C 0 km/h
243 17-02-2010 04:51:37 -5.3 C 2.5 g/m*3 -5.3 C 0 km/h
244 17-02-2010 05:16:37 -5.2 C 2.48 g/m*3 -5.2 C 0 km/h
245 17-02-2010 05:41:37 -4.9 C 2.54 g/m*3 -4.9 C 0 km/h
246 17-02-2010 06:06:37 -4.9 C 2.54 g/m*3 -4.9 C 0 km/h
247 17-02-2010 06:31:37 -4.7 C 2.57 g/m*3 -4.7 C 0 km/h
248 17-02-2010 06:56:37 -4.5 C 2.61 g/m*3 -4.5 C 0 km/h
249 17-02-2010 07:21:37 -4.4 C 2.6 g/m*3 -4.4 C 0 km/h
250 17-02-2010 07:46:37 -4.1 C 2.62 g/m*3 -4.1 C 0 km/h
Sensor: Nr:Datum:Temp:Abs-Feuchte:Windchill:Wind:
Aussen-T/F 251 17-02-2010 08:11:37 -3.8 C 2.67 g/m*3 -3.8 C 0 km/h
252 17-02-2010 08:36:37 -3.4 C 2.71 g/m*3 -3.4 C 0 km/h
253 17-02-2010 09:01:37 -3.1 C 2.65 g/m*3 -3.1 C 0 km/h
254 17-02-2010 09:26:37 -2.9 C 2.49 g/m*3 -2.9 C 0 km/h
255 17-02-2010 09:51:37 -2.7 C 2.53 g/m*3 -2.7 C 0 km/h
256 17-02-2010 10:16:37 -2.7 C 2.53 g/m*3 -2.7 C 0 km/h
257 17-02-2010 10:41:37 -2.2 C 2.54 g/m*3 -2.2 C 0 km/h
258 17-02-2010 11:06:37 -1.4 C 2.73 g/m*3 -1.4 C 0 km/h
259 17-02-2010 11:31:37 -0.6 C 2.79 g/m*3 -0.6 C 0 km/h
260 17-02-2010 11:56:37 1 C 2.91 g/m*3 1 C 0 km/h
261 17-02-2010 12:21:37 2.7 C 2.8 g/m*3 2.7 C 0 km/h
262 17-02-2010 12:46:37 3.5 C 2.71 g/m*3 3.5 C 0 km/h
263 17-02-2010 13:11:38 2.9 C 2.72 g/m*3 2.9 C 0 km/h
264 17-02-2010 13:36:38 2.8 C 2.7 g/m*3 2.8 C 0 km/h
265 17-02-2010 14:01:38 2.7 C 2.97 g/m*3 2.7 C 0 km/h
266 17-02-2010 14:26:38 2.1 C 3.3 g/m*3 2.1 C 0 km/h
267 17-02-2010 14:51:38 2.1 C 3.58 g/m*3 2.1 C 0 km/h
268 17-02-2010 15:16:38 1.3 C 3.81 g/m*3 1.3 C 0 km/h
269 17-02-2010 15:41:38 1.2 C 4 g/m*3 1.2 C 0 km/h
270 17-02-2010 16:06:38 1.3 C 4.13 g/m*3 1.3 C 0 km/h
271 17-02-2010 16:31:38 1 C 4.15 g/m*3 1 C 0 km/h
272 17-02-2010 16:56:38 0.9 C 4.23 g/m*3 0.9 C 0 km/h
273 17-02-2010 17:21:38 0.7 C 4.17 g/m*3 0.7 C 0 km/h
274 17-02-2010 17:46:38 0.6 C 4.19 g/m*3 0.6 C 0 km/h
275 17-02-2010 18:11:38 0.5 C 4.21 g/m*3 0.5 C 0 km/h
Sensor: Nr:Datum:Temp:Abs-Feuchte:Windchill:Wind:
Aussen-T/F 276 17-02-2010 18:36:38 0.5 C 4.31 g/m*3 0.5 C 0 km/h
277 17-02-2010 19:01:38 0.5 C 4.36 g/m*3 0.5 C 0 km/h
278 17-02-2010 19:26:38 0.5 C 4.36 g/m*3 0.5 C 0 km/h
279 17-02-2010 19:51:38 0.5 C 4.41 g/m*3 0.5 C 0 km/h
280 17-02-2010 20:16:38 0.7 C 4.53 g/m*3 0.7 C 0 km/h
281 17-02-2010 20:41:38 0.7 C 4.53 g/m*3 0.7 C 0 km/h
282 17-02-2010 21:06:38 0.7 C 4.53 g/m*3 0.7 C 0 km/h
283 17-02-2010 21:31:38 0.8 C 4.51 g/m*3 0.8 C 0 km/h
284 17-02-2010 21:56:39 0.8 C 4.56 g/m*3 0.8 C 0 km/h
285 17-02-2010 22:21:39 0.8 C 4.51 g/m*3 0.8 C 0 km/h
286 17-02-2010 22:46:39 0.8 C 4.51 g/m*3 0.8 C 0 km/h
287 17-02-2010 23:11:39 0.8 C 4.51 g/m*3 0.8 C 0 km/h
288 17-02-2010 23:36:39 0.8 C 4.51 g/m*3 0.8 C 0 km/h
289 18-02-2010 00:01:39 0.8 C 4.51 g/m*3 0.8 C 0 km/h
290 18-02-2010 00:26:39 0.9 C 4.54 g/m*3 0.9 C 0 km/h
291 18-02-2010 00:51:39 0.9 C 4.54 g/m*3 0.9 C 0 km/h
292 18-02-2010 01:16:39 1 C 4.57 g/m*3 1 C 0 km/h
293 18-02-2010 01:41:39 1 C 4.57 g/m*3 1 C 0 km/h
294 18-02-2010 02:06:39 1 C 4.57 g/m*3 1 C 0 km/h
295 18-02-2010 02:31:39 1.2 C 4.63 g/m*3 1.2 C 0 km/h
296 18-02-2010 02:56:39 1 C 4.57 g/m*3 1 C 0 km/h
297 18-02-2010 03:21:39 1.2 C 4.63 g/m*3 1.2 C 0 km/h
298 18-02-2010 03:46:39 1 C 4.57 g/m*3 1 C 0 km/h
299 18-02-2010 04:11:39 1 C 4.62 g/m*3 1 C 0 km/h
300 18-02-2010 04:36:39 1 C 4.62 g/m*3 1 C 0 km/h
Sensor: Nr:Datum:Temp:Abs-Feuchte:Windchill:Wind:
Aussen-T/F 301 18-02-2010 05:01:39 1.2 C 4.68 g/m*3 1.2 C 0 km/h
302 18-02-2010 05:26:39 1 C 4.62 g/m*3 1 C 0 km/h
303 18-02-2010 05:51:39 1.1 C 4.65 g/m*3 1.1 C 0 km/h
304 18-02-2010 06:16:40 1.1 C 4.65 g/m*3 1.1 C 0 km/h
305 18-02-2010 06:41:40 1.2 C 4.74 g/m*3 1.2 C 0 km/h
306 18-02-2010 07:06:40 1.1 C 4.7 g/m*3 1.1 C 0 km/h
307 18-02-2010 07:31:40 1.1 C 4.7 g/m*3 1.1 C 0 km/h
308 18-02-2010 07:56:40 1.1 C 4.7 g/m*3 1.1 C 0 km/h
309 18-02-2010 08:21:40 1.1 C 4.76 g/m*3 1.1 C 0 km/h
310 18-02-2010 08:46:40 1.4 C 4.85 g/m*3 1.4 C 0 km/h
311 18-02-2010 09:11:40 1.7 C 5.01 g/m*3 1.7 C 0 km/h
312 18-02-2010 09:36:40 2 C 5.06 g/m*3 2 C 0 km/h
313 18-02-2010 10:01:40 2.6 C 5.32 g/m*3 2.6 C 0 km/h
314 18-02-2010 10:26:40 3.6 C 5.63 g/m*3 3.6 C 0 km/h
315 18-02-2010 10:51:40 3.8 C 5.58 g/m*3 3.8 C 0 km/h
316 18-02-2010 11:16:40 4.1 C 5.25 g/m*3 4.1 C 0 km/h
317 18-02-2010 11:41:40 4.4 C 5.03 g/m*3 4.4 C 0 km/h
318 18-02-2010 12:06:40 4.7 C 4.86 g/m*3 4.7 C 0 km/h
319 18-02-2010 12:31:40 5.1 C 4.65 g/m*3 5.1 C 0 km/h
320 18-02-2010 12:56:40 5.8 C 4.58 g/m*3 5.8 C 0 km/h
321 18-02-2010 13:21:40 6.8 C 4.36 g/m*3 6.8 C 0 km/h
322 18-02-2010 13:46:40 7.4 C 4.14 g/m*3 7.4 C 0 km/h
323 18-02-2010 14:11:40 8 C 4.13 g/m*3 8 C 0 km/h
324 18-02-2010 14:36:41 8.5 C 4.1 g/m*3 8.5 C 0 km/h
325 18-02-2010 15:01:41 9.1 C 3.73 g/m*3 9.1 C 0 km/h
Sensor: Nr:Datum:Temp:Abs-Feuchte:Windchill:Wind:
Aussen-T/F 326 18-02-2010 15:26:41 9.5 C 3.64 g/m*3 9.5 C 0 km/h
327 18-02-2010 15:51:41 10.1 C 3.59 g/m*3 10.1 C 0 km/h
328 18-02-2010 16:16:41 9.6 C 3.57 g/m*3 9.6 C 0 km/h
329 18-02-2010 16:41:41 9.3 C 3.59 g/m*3 9.3 C 0 km/h
330 18-02-2010 17:06:41 7.5 C 3.36 g/m*3 7.5 C 0 km/h
331 18-02-2010 17:31:41 6.3 C 3.55 g/m*3 6.3 C 0 km/h
332 18-02-2010 17:56:41 5.6 C 3.68 g/m*3 5.6 C 0 km/h
333 18-02-2010 18:21:41 4 C 3.88 g/m*3 4 C 0 km/h
334 18-02-2010 18:46:41 3.2 C 3.98 g/m*3 3.2 C 0 km/h
335 18-02-2010 19:11:41 2.6 C 4.11 g/m*3 2.6 C 0 km/h
336 18-02-2010 19:36:41 2.5 C 4.2 g/m*3 2.5 C 0 km/h
337 18-02-2010 20:01:41 2.1 C 4.08 g/m*3 2.1 C 0 km/h
338 18-02-2010 20:26:41 2 C 4.17 g/m*3 2 C 0 km/h
339 18-02-2010 20:51:41 1.6 C 4.16 g/m*3 1.6 C 0 km/h
340 18-02-2010 21:16:41 1.4 C 4.21 g/m*3 1.4 C 0 km/h
341 18-02-2010 21:41:41 1.4 C 4.21 g/m*3 1.4 C 0 km/h
342 18-02-2010 22:06:41 1.7 C 4.3 g/m*3 1.7 C 0 km/h
343 18-02-2010 22:31:41 2 C 4.33 g/m*3 2 C 0 km/h
344 18-02-2010 22:56:42 1.9 C 4.36 g/m*3 1.9 C 0 km/h
345 18-02-2010 23:21:42 1.7 C 4.3 g/m*3 1.7 C 0 km/h
346 18-02-2010 23:46:42 1.9 C 4.53 g/m*3 1.9 C 0 km/h
347 19-02-2010 00:11:42 2.1 C 4.59 g/m*3 2.1 C 0 km/h
348 19-02-2010 00:36:42 1.8 C 4.55 g/m*3 1.8 C 0 km/h
349 19-02-2010 01:01:42 2 C 4.67 g/m*3 2 C 0 km/h
350 19-02-2010 01:26:42 2 C 4.67 g/m*3 2 C 0 km/h
Sensor: Nr:Datum:Temp:Abs-Feuchte:Windchill:Wind:
Aussen-T/F 351 19-02-2010 01:51:42 2.1 C 4.76 g/m*3 2.1 C 0 km/h
352 19-02-2010 02:16:42 2.1 C 4.7 g/m*3 2.1 C 0 km/h
353 19-02-2010 02:41:42 2 C 4.67 g/m*3 2 C 0 km/h
354 19-02-2010 03:06:42 1.8 C 4.66 g/m*3 1.8 C 0 km/h
355 19-02-2010 03:31:42 1.8 C 4.71 g/m*3 1.8 C 0 km/h
356 19-02-2010 03:56:42 1.6 C 4.7 g/m*3 1.6 C 0 km/h
357 19-02-2010 04:21:42 1.6 C 4.7 g/m*3 1.6 C 0 km/h
358 19-02-2010 04:46:42 1.6 C 4.7 g/m*3 1.6 C 0 km/h
359 19-02-2010 05:11:42 1.7 C 4.79 g/m*3 1.7 C 0 km/h
360 19-02-2010 05:36:42 1.8 C 4.77 g/m*3 1.8 C 0 km/h
361 19-02-2010 06:01:42 1.9 C 4.8 g/m*3 1.9 C 0 km/h
362 19-02-2010 06:26:42 2.1 C 4.76 g/m*3 2.1 C 0 km/h
363 19-02-2010 06:51:42 2 C 4.67 g/m*3 2 C 0 km/h
364 19-02-2010 07:16:42 1.7 C 4.63 g/m*3 1.7 C 0 km/h
365 19-02-2010 07:41:43 1.5 C 4.57 g/m*3 1.5 C 0 km/h
366 19-02-2010 08:06:43 1.5 C 4.62 g/m*3 1.5 C 0 km/h
367 19-02-2010 08:31:43 1.6 C 4.65 g/m*3 1.6 C 0 km/h
368 19-02-2010 08:56:43 2.1 C 4.81 g/m*3 2.1 C 0 km/h
369 19-02-2010 09:21:43 2.5 C 4.83 g/m*3 2.5 C 0 km/h
370 19-02-2010 09:46:43 3.1 C 4.91 g/m*3 3.1 C 0 km/h
371 19-02-2010 10:11:43 3.7 C 5.05 g/m*3 3.7 C 0 km/h
372 19-02-2010 10:36:02 4.6 C 5.1 g/m*3 4.6 C 0 km/h
373 19-02-2010 11:01:02 5.3 C 5.06 g/m*3 5.3 C 0 km/h
374 19-02-2010 11:26:01 6 C 4.79 g/m*3 6 C 0 km/h
375 19-02-2010 11:51:02 6.5 C 4.72 g/m*3 6.5 C 0 km/h
Sensor: Nr:Datum:Temp:Abs-Feuchte:Windchill:Wind:
Aussen-T/F 376 19-02-2010 12:16:02 7 C 4.49 g/m*3 7 C 0 km/h
377 19-02-2010 12:41:02 7.6 C 4.27 g/m*3 7.6 C 0 km/h
378 19-02-2010 13:06:02 7.6 C 4.11 g/m*3 7.6 C 0 km/h
379 19-02-2010 13:31:02 7.7 C 4.05 g/m*3 7.7 C 0 km/h
380 19-02-2010 13:56:02 7.6 C 3.95 g/m*3 7.6 C 0 km/h
381 19-02-2010 14:21:01 7.5 C 4 g/m*3 7.5 C 0 km/h
382 19-02-2010 14:46:02 7.5 C 3.92 g/m*3 7.5 C 0 km/h
383 19-02-2010 15:11:03 7.8 C 3.67 g/m*3 7.8 C 0 km/h
384 19-02-2010 15:36:02 7.2 C 3.53 g/m*3 7.2 C 0 km/h
385 19-02-2010 16:01:02 6.3 C 3.33 g/m*3 6.3 C 0 km/h
386 19-02-2010 16:26:01 6.1 C 3.29 g/m*3 6.1 C 0 km/h
387 19-02-2010 16:51:01 5.5 C 3.23 g/m*3 5.5 C 0 km/h
388 19-02-2010 17:16:02 5 C 3.06 g/m*3 5 C 0 km/h
389 19-02-2010 17:41:02 5.1 C 3.01 g/m*3 5.1 C 0 km/h
390 19-02-2010 18:06:02 4.5 C 3.02 g/m*3 4.5 C 0 km/h
391 19-02-2010 18:31:02 4.1 C 3.07 g/m*3 4.1 C 0 km/h
392 19-02-2010 18:56:01 3.7 C 3.18 g/m*3 3.7 C 0 km/h
393 19-02-2010 19:21:01 3.6 C 3.22 g/m*3 3.6 C 0 km/h
394 19-02-2010 19:46:02 3.6 C 3.28 g/m*3 3.6 C 0 km/h
395 19-02-2010 20:11:02 3.3 C 3.34 g/m*3 3.3 C 0 km/h
396 19-02-2010 20:36:02 3.3 C 3.46 g/m*3 3.3 C 0 km/h
397 19-02-2010 21:14:02 3.3 C 3.52 g/m*3 3.3 C 0 km/h
398 19-02-2010 21:26:02 3.2 C 3.56 g/m*3 3.2 C 0 km/h
399 19-02-2010 21:38:01 3.2 C 3.5 g/m*3 3.2 C 0 km/h
400 19-02-2010 21:50:01 3.1 C 3.53 g/m*3 3.1 C 0 km/h
Sensor: Nr:Datum:Temp:Abs-Feuchte:Windchill:Wind:
Aussen-T/F 401 19-02-2010 22:02:02 2.8 C 3.52 g/m*3 2.8 C 0 km/h
402 19-02-2010 22:14:02 2.6 C 3.53 g/m*3 2.6 C 0 km/h
403 19-02-2010 22:26:01 2.6 C 3.47 g/m*3 2.6 C 0 km/h
404 19-02-2010 22:38:02 2.4 C 3.43 g/m*3 2.4 C 0 km/h
405 19-02-2010 22:50:01 2.2 C 3.38 g/m*3 2.2 C 0 km/h
406 19-02-2010 23:02:02 2.1 C 3.36 g/m*3 2.1 C 0 km/h
407 19-02-2010 23:14:02 2.5 C 3.22 g/m*3 2.5 C 0 km/h
408 19-02-2010 23:26:01 2.5 C 3.16 g/m*3 2.5 C 0 km/h
409 19-02-2010 23:38:02 2.2 C 3.21 g/m*3 2.2 C 0 km/h
410 19-02-2010 23:50:01 1.6 C 3.24 g/m*3 1.6 C 0 km/h

Legende:
   Min
   Max


Maximal/Minimal-Werte vom 13.02.2010 - 19.02.2010

Sensor Min Max Avg
Temp
(Aussen-T/F)
-6.9 °C
17-02-2010  03:11:36
10.1 °C
18-02-2010  15:51:41
-0.19 °C
Abs-Feuchte
(Aussen-T/F)
2.22 g/m*3
17-02-2010  03:11:36
5.63 g/m*3
18-02-2010  10:26:40
3.4 g/m*3
Windchill
(Aussen-T/F)
-6.9 C
17-02-2010  03:11:36
10.1 C
18-02-2010  15:51:41
-0.19 C

Die Daten stammen von einer Davis Vantage Pro 2 Wetter-Station und werden unter Linux mit der Software wview2wettercgi und aufbereitet. Alle Angaben erfolgen ohne Gewähr für ihre Vollständigkeit oder Richtigkeit.
Kontakt: Rainer Krienke krienke@uni-koblenz.de . Meine Webseiten an der Uni Koblenz oder privat.
Version: $Revision: 0.78 $